sensor_id;sensor_type;location;lat;lon;timestamp;P1;durP1;ratioP1;P2;durP2;ratioP2
70467;SDS011;57934;51.532;7.684;2023-03-01T00:01:17;15.10;;;9.45;;
70467;SDS011;57934;51.532;7.684;2023-03-01T00:03:45;14.32;;;9.18;;
70467;SDS011;57934;51.532;7.684;2023-03-01T00:06:11;12.85;;;8.93;;
70467;SDS011;57934;51.532;7.684;2023-03-01T00:08:37;16.33;;;9.88;;
70467;SDS011;57934;51.532;7.684;2023-03-01T00:11:14;13.45;;;9.57;;
70467;SDS011;57934;51.532;7.684;2023-03-01T00:13:45;13.13;;;9.00;;
70467;SDS011;57934;51.532;7.684;2023-03-01T00:16:14;13.50;;;9.18;;
70467;SDS011;57934;51.532;7.684;2023-03-01T00:18:41;18.08;;;10.20;;
70467;SDS011;57934;51.532;7.684;2023-03-01T00:21:07;16.73;;;8.85;;
70467;SDS011;57934;51.532;7.684;2023-03-01T00:23:34;13.48;;;8.95;;
70467;SDS011;57934;51.532;7.684;2023-03-01T00:26:00;16.35;;;8.73;;
70467;SDS011;57934;51.532;7.684;2023-03-01T00:28:27;17.20;;;9.65;;
70467;SDS011;57934;51.532;7.684;2023-03-01T00:30:53;15.20;;;9.73;;
70467;SDS011;57934;51.532;7.684;2023-03-01T00:33:19;17.63;;;10.35;;
70467;SDS011;57934;51.532;7.684;2023-03-01T00:35:45;12.02;;;8.25;;
70467;SDS011;57934;51.532;7.684;2023-03-01T00:38:11;17.15;;;10.60;;
70467;SDS011;57934;51.532;7.684;2023-03-01T00:40:37;14.73;;;9.65;;
70467;SDS011;57934;51.532;7.684;2023-03-01T00:43:03;18.77;;;9.77;;
70467;SDS011;57934;51.532;7.684;2023-03-01T00:45:30;14.15;;;9.30;;
70467;SDS011;57934;51.532;7.684;2023-03-01T00:47:58;14.55;;;9.30;;
70467;SDS011;57934;51.532;7.684;2023-03-01T00:50:24;14.63;;;9.27;;
70467;SDS011;57934;51.532;7.684;2023-03-01T00:52:54;14.77;;;9.82;;
70467;SDS011;57934;51.532;7.684;2023-03-01T00:55:21;15.32;;;10.18;;
70467;SDS011;57934;51.532;7.684;2023-03-01T00:57:47;22.48;;;10.05;;
70467;SDS011;57934;51.532;7.684;2023-03-01T01:00:14;16.08;;;9.10;;
70467;SDS011;57934;51.532;7.684;2023-03-01T01:02:40;19.27;;;9.65;;
70467;SDS011;57934;51.532;7.684;2023-03-01T01:05:06;14.43;;;10.05;;
70467;SDS011;57934;51.532;7.684;2023-03-01T01:07:33;14.15;;;9.98;;
70467;SDS011;57934;51.532;7.684;2023-03-01T01:09:58;17.75;;;10.57;;
70467;SDS011;57934;51.532;7.684;2023-03-01T01:12:25;15.85;;;9.80;;
70467;SDS011;57934;51.532;7.684;2023-03-01T01:14:51;21.42;;;10.70;;
70467;SDS011;57934;51.532;7.684;2023-03-01T01:17:16;16.70;;;10.35;;
70467;SDS011;57934;51.532;7.684;2023-03-01T01:19:42;19.40;;;10.80;;
70467;SDS011;57934;51.532;7.684;2023-03-01T01:22:09;17.70;;;10.93;;
70467;SDS011;57934;51.532;7.684;2023-03-01T01:24:35;17.20;;;10.88;;
70467;SDS011;57934;51.532;7.684;2023-03-01T01:27:01;19.05;;;11.23;;
70467;SDS011;57934;51.532;7.684;2023-03-01T01:29:27;22.10;;;11.82;;
70467;SDS011;57934;51.532;7.684;2023-03-01T01:31:53;19.80;;;11.82;;
70467;SDS011;57934;51.532;7.684;2023-03-01T01:34:20;25.30;;;12.32;;
70467;SDS011;57934;51.532;7.684;2023-03-01T01:36:48;25.67;;;12.30;;
70467;SDS011;57934;51.532;7.684;2023-03-01T01:39:21;21.95;;;12.57;;
70467;SDS011;57934;51.532;7.684;2023-03-01T01:41:47;19.30;;;12.68;;
70467;SDS011;57934;51.532;7.684;2023-03-01T01:44:21;19.33;;;12.77;;
70467;SDS011;57934;51.532;7.684;2023-03-01T01:49:43;20.98;;;12.43;;
70467;SDS011;57934;51.532;7.684;2023-03-01T01:54:49;20.48;;;11.73;;
70467;SDS011;57934;51.532;7.684;2023-03-01T01:57:23;22.90;;;12.98;;
70467;SDS011;57934;51.532;7.684;2023-03-01T01:59:56;28.02;;;13.52;;
70467;SDS011;57934;51.532;7.684;2023-03-01T02:02:26;23.10;;;12.77;;
70467;SDS011;57934;51.532;7.684;2023-03-01T02:04:53;22.05;;;13.23;;
70467;SDS011;57934;51.532;7.684;2023-03-01T02:07:29;21.20;;;12.52;;
70467;SDS011;57934;51.532;7.684;2023-03-01T02:09:56;19.65;;;12.50;;
70467;SDS011;57934;51.532;7.684;2023-03-01T02:12:23;21.52;;;12.65;;
70467;SDS011;57934;51.532;7.684;2023-03-01T02:14:51;19.85;;;12.98;;
70467;SDS011;57934;51.532;7.684;2023-03-01T02:17:17;23.83;;;13.90;;
70467;SDS011;57934;51.532;7.684;2023-03-01T02:19:59;22.52;;;13.52;;
70467;SDS011;57934;51.532;7.684;2023-03-01T02:22:34;25.23;;;13.73;;
70467;SDS011;57934;51.532;7.684;2023-03-01T02:25:08;25.08;;;12.98;;
70467;SDS011;57934;51.532;7.684;2023-03-01T02:30:10;20.45;;;13.35;;
70467;SDS011;57934;51.532;7.684;2023-03-01T02:32:39;23.70;;;14.10;;
70467;SDS011;57934;51.532;7.684;2023-03-01T02:35:08;20.40;;;12.70;;
70467;SDS011;57934;51.532;7.684;2023-03-01T02:37:37;22.42;;;13.32;;
70467;SDS011;57934;51.532;7.684;2023-03-01T02:40:06;20.70;;;12.15;;
70467;SDS011;57934;51.532;7.684;2023-03-01T02:42:53;24.77;;;13.63;;
70467;SDS011;57934;51.532;7.684;2023-03-01T02:45:22;25.27;;;11.63;;
70467;SDS011;57934;51.532;7.684;2023-03-01T02:47:49;21.33;;;12.93;;
70467;SDS011;57934;51.532;7.684;2023-03-01T02:50:29;19.83;;;11.82;;
70467;SDS011;57934;51.532;7.684;2023-03-01T02:55:59;22.30;;;12.75;;
70467;SDS011;57934;51.532;7.684;2023-03-01T02:58:25;26.85;;;12.82;;
70467;SDS011;57934;51.532;7.684;2023-03-01T03:00:51;24.42;;;12.50;;
70467;SDS011;57934;51.532;7.684;2023-03-01T03:03:19;22.15;;;12.40;;
70467;SDS011;57934;51.532;7.684;2023-03-01T03:05:46;20.38;;;11.90;;
70467;SDS011;57934;51.532;7.684;2023-03-01T03:08:14;20.52;;;12.65;;
70467;SDS011;57934;51.532;7.684;2023-03-01T03:10:49;20.58;;;13.15;;
70467;SDS011;57934;51.532;7.684;2023-03-01T03:13:15;19.75;;;12.73;;
70467;SDS011;57934;51.532;7.684;2023-03-01T03:15:42;21.33;;;12.35;;
70467;SDS011;57934;51.532;7.684;2023-03-01T03:18:10;22.98;;;13.13;;
70467;SDS011;57934;51.532;7.684;2023-03-01T03:20:38;20.50;;;12.95;;
70467;SDS011;57934;51.532;7.684;2023-03-01T03:23:06;19.98;;;12.40;;
70467;SDS011;57934;51.532;7.684;2023-03-01T03:25:32;20.65;;;12.48;;
70467;SDS011;57934;51.532;7.684;2023-03-01T03:27:58;20.27;;;12.00;;
70467;SDS011;57934;51.532;7.684;2023-03-01T03:30:25;19.55;;;12.13;;
70467;SDS011;57934;51.532;7.684;2023-03-01T03:32:53;20.55;;;12.70;;
70467;SDS011;57934;51.532;7.684;2023-03-01T03:35:20;25.73;;;12.63;;
70467;SDS011;57934;51.532;7.684;2023-03-01T03:37:48;20.58;;;12.15;;
70467;SDS011;57934;51.532;7.684;2023-03-01T03:42:55;24.40;;;12.18;;
70467;SDS011;57934;51.532;7.684;2023-03-01T03:45:21;20.45;;;13.15;;
70467;SDS011;57934;51.532;7.684;2023-03-01T03:47:47;19.55;;;12.25;;
70467;SDS011;57934;51.532;7.684;2023-03-01T03:50:14;23.10;;;14.38;;
70467;SDS011;57934;51.532;7.684;2023-03-01T03:52:42;20.17;;;13.07;;
70467;SDS011;57934;51.532;7.684;2023-03-01T03:55:09;23.17;;;14.73;;
70467;SDS011;57934;51.532;7.684;2023-03-01T03:57:37;22.42;;;13.15;;
70467;SDS011;57934;51.532;7.684;2023-03-01T04:00:04;20.60;;;13.63;;
70467;SDS011;57934;51.532;7.684;2023-03-01T04:02:44;19.02;;;12.02;;
70467;SDS011;57934;51.532;7.684;2023-03-01T04:05:12;17.15;;;11.70;;
70467;SDS011;57934;51.532;7.684;2023-03-01T04:07:40;21.02;;;12.10;;
70467;SDS011;57934;51.532;7.684;2023-03-01T04:10:09;18.63;;;11.80;;
70467;SDS011;57934;51.532;7.684;2023-03-01T04:12:37;21.00;;;11.75;;
70467;SDS011;57934;51.532;7.684;2023-03-01T04:15:04;22.15;;;13.18;;
70467;SDS011;57934;51.532;7.684;2023-03-01T04:17:39;23.30;;;13.27;;
70467;SDS011;57934;51.532;7.684;2023-03-01T04:20:13;18.92;;;12.57;;
70467;SDS011;57934;51.532;7.684;2023-03-01T04:22:43;20.05;;;12.80;;
70467;SDS011;57934;51.532;7.684;2023-03-01T04:25:12;21.15;;;13.10;;
70467;SDS011;57934;51.532;7.684;2023-03-01T04:27:40;21.90;;;14.00;;
70467;SDS011;57934;51.532;7.684;2023-03-01T04:30:06;21.30;;;12.50;;
70467;SDS011;57934;51.532;7.684;2023-03-01T04:32:33;23.85;;;14.50;;
70467;SDS011;57934;51.532;7.684;2023-03-01T04:34:59;23.08;;;14.18;;
70467;SDS011;57934;51.532;7.684;2023-03-01T04:37:26;21.73;;;13.70;;
70467;SDS011;57934;51.532;7.684;2023-03-01T04:39:52;25.52;;;14.82;;
70467;SDS011;57934;51.532;7.684;2023-03-01T04:42:18;23.60;;;14.98;;
70467;SDS011;57934;51.532;7.684;2023-03-01T04:44:45;24.52;;;14.00;;
70467;SDS011;57934;51.532;7.684;2023-03-01T04:47:11;22.20;;;14.40;;
70467;SDS011;57934;51.532;7.684;2023-03-01T04:49:37;26.33;;;15.32;;
70467;SDS011;57934;51.532;7.684;2023-03-01T04:52:04;24.15;;;14.23;;
70467;SDS011;57934;51.532;7.684;2023-03-01T04:54:31;22.95;;;14.27;;
70467;SDS011;57934;51.532;7.684;2023-03-01T04:56:58;23.05;;;13.50;;
70467;SDS011;57934;51.532;7.684;2023-03-01T04:59:24;24.02;;;13.90;;
70467;SDS011;57934;51.532;7.684;2023-03-01T05:01:51;23.20;;;14.35;;
70467;SDS011;57934;51.532;7.684;2023-03-01T05:04:18;25.60;;;14.48;;
70467;SDS011;57934;51.532;7.684;2023-03-01T05:06:44;24.67;;;14.68;;
70467;SDS011;57934;51.532;7.684;2023-03-01T05:09:10;24.65;;;14.85;;
70467;SDS011;57934;51.532;7.684;2023-03-01T05:11:37;27.95;;;15.60;;
70467;SDS011;57934;51.532;7.684;2023-03-01T05:14:03;22.80;;;14.35;;
70467;SDS011;57934;51.532;7.684;2023-03-01T05:16:30;25.10;;;14.82;;
70467;SDS011;57934;51.532;7.684;2023-03-01T05:18:57;26.08;;;14.90;;
70467;SDS011;57934;51.532;7.684;2023-03-01T05:21:24;22.90;;;14.88;;
70467;SDS011;57934;51.532;7.684;2023-03-01T05:23:51;29.23;;;15.32;;
70467;SDS011;57934;51.532;7.684;2023-03-01T05:26:20;24.52;;;14.48;;
70467;SDS011;57934;51.532;7.684;2023-03-01T05:28:47;25.08;;;14.35;;
70467;SDS011;57934;51.532;7.684;2023-03-01T05:31:14;26.17;;;14.82;;
70467;SDS011;57934;51.532;7.684;2023-03-01T05:33:40;24.60;;;15.05;;
70467;SDS011;57934;51.532;7.684;2023-03-01T05:36:06;22.23;;;13.55;;
70467;SDS011;57934;51.532;7.684;2023-03-01T05:38:35;25.83;;;15.75;;
70467;SDS011;57934;51.532;7.684;2023-03-01T05:41:02;23.80;;;15.27;;
70467;SDS011;57934;51.532;7.684;2023-03-01T05:43:30;30.40;;;15.20;;
70467;SDS011;57934;51.532;7.684;2023-03-01T05:45:59;29.55;;;15.77;;
70467;SDS011;57934;51.532;7.684;2023-03-01T05:48:25;29.33;;;15.55;;
70467;SDS011;57934;51.532;7.684;2023-03-01T05:50:51;24.00;;;15.52;;
70467;SDS011;57934;51.532;7.684;2023-03-01T05:53:18;26.40;;;15.80;;
70467;SDS011;57934;51.532;7.684;2023-03-01T05:55:46;27.23;;;15.00;;
70467;SDS011;57934;51.532;7.684;2023-03-01T05:58:14;26.23;;;15.38;;
70467;SDS011;57934;51.532;7.684;2023-03-01T06:00:42;27.58;;;15.10;;
70467;SDS011;57934;51.532;7.684;2023-03-01T06:03:10;26.08;;;14.98;;
70467;SDS011;57934;51.532;7.684;2023-03-01T06:05:37;23.13;;;15.15;;
70467;SDS011;57934;51.532;7.684;2023-03-01T06:08:05;27.17;;;14.82;;
70467;SDS011;57934;51.532;7.684;2023-03-01T06:10:31;21.98;;;15.05;;
70467;SDS011;57934;51.532;7.684;2023-03-01T06:12:57;26.70;;;15.32;;
70467;SDS011;57934;51.532;7.684;2023-03-01T06:15:24;25.33;;;14.77;;
70467;SDS011;57934;51.532;7.684;2023-03-01T06:17:51;24.00;;;14.48;;
70467;SDS011;57934;51.532;7.684;2023-03-01T06:20:21;29.38;;;14.63;;
70467;SDS011;57934;51.532;7.684;2023-03-01T06:22:49;24.80;;;14.40;;
70467;SDS011;57934;51.532;7.684;2023-03-01T06:25:17;29.83;;;16.67;;
70467;SDS011;57934;51.532;7.684;2023-03-01T06:27:46;27.25;;;16.27;;
70467;SDS011;57934;51.532;7.684;2023-03-01T06:30:13;31.60;;;17.55;;
70467;SDS011;57934;51.532;7.684;2023-03-01T06:32:40;28.73;;;15.80;;
70467;SDS011;57934;51.532;7.684;2023-03-01T06:35:10;23.20;;;15.70;;
70467;SDS011;57934;51.532;7.684;2023-03-01T06:37:38;24.02;;;14.13;;
70467;SDS011;57934;51.532;7.684;2023-03-01T06:40:05;27.15;;;14.50;;
70467;SDS011;57934;51.532;7.684;2023-03-01T06:42:37;24.25;;;14.05;;
70467;SDS011;57934;51.532;7.684;2023-03-01T06:45:04;23.63;;;14.75;;
70467;SDS011;57934;51.532;7.684;2023-03-01T06:47:32;23.70;;;13.45;;
70467;SDS011;57934;51.532;7.684;2023-03-01T06:49:59;21.35;;;13.43;;
70467;SDS011;57934;51.532;7.684;2023-03-01T06:52:25;26.63;;;13.48;;
70467;SDS011;57934;51.532;7.684;2023-03-01T06:54:51;22.63;;;13.18;;
70467;SDS011;57934;51.532;7.684;2023-03-01T06:57:17;27.17;;;15.02;;
70467;SDS011;57934;51.532;7.684;2023-03-01T06:59:43;23.48;;;11.85;;
70467;SDS011;57934;51.532;7.684;2023-03-01T07:02:10;20.90;;;12.07;;
70467;SDS011;57934;51.532;7.684;2023-03-01T07:04:37;22.80;;;12.90;;
70467;SDS011;57934;51.532;7.684;2023-03-01T07:07:04;23.65;;;12.13;;
70467;SDS011;57934;51.532;7.684;2023-03-01T07:09:30;21.85;;;11.82;;
70467;SDS011;57934;51.532;7.684;2023-03-01T07:11:56;19.50;;;12.40;;
70467;SDS011;57934;51.532;7.684;2023-03-01T07:14:22;21.02;;;12.45;;
70467;SDS011;57934;51.532;7.684;2023-03-01T07:16:52;22.23;;;12.57;;
70467;SDS011;57934;51.532;7.684;2023-03-01T07:19:19;19.75;;;12.18;;
70467;SDS011;57934;51.532;7.684;2023-03-01T07:21:46;20.58;;;12.38;;
70467;SDS011;57934;51.532;7.684;2023-03-01T07:24:12;24.33;;;11.30;;
70467;SDS011;57934;51.532;7.684;2023-03-01T07:26:38;19.13;;;11.80;;
70467;SDS011;57934;51.532;7.684;2023-03-01T07:29:05;20.15;;;11.57;;
70467;SDS011;57934;51.532;7.684;2023-03-01T07:31:32;22.33;;;11.38;;
70467;SDS011;57934;51.532;7.684;2023-03-01T07:33:58;16.80;;;11.00;;
70467;SDS011;57934;51.532;7.684;2023-03-01T07:36:24;21.45;;;11.70;;
70467;SDS011;57934;51.532;7.684;2023-03-01T07:38:51;19.13;;;11.48;;
70467;SDS011;57934;51.532;7.684;2023-03-01T07:41:17;22.25;;;11.27;;
70467;SDS011;57934;51.532;7.684;2023-03-01T07:43:43;22.15;;;11.52;;
70467;SDS011;57934;51.532;7.684;2023-03-01T07:46:09;18.58;;;11.43;;
70467;SDS011;57934;51.532;7.684;2023-03-01T07:48:35;19.38;;;10.57;;
70467;SDS011;57934;51.532;7.684;2023-03-01T07:51:02;17.50;;;10.98;;
70467;SDS011;57934;51.532;7.684;2023-03-01T07:53:30;19.33;;;11.27;;
70467;SDS011;57934;51.532;7.684;2023-03-01T07:56:07;19.05;;;11.13;;
70467;SDS011;57934;51.532;7.684;2023-03-01T07:58:36;17.65;;;10.57;;
70467;SDS011;57934;51.532;7.684;2023-03-01T08:01:07;15.35;;;10.27;;
70467;SDS011;57934;51.532;7.684;2023-03-01T08:03:35;16.55;;;10.52;;
70467;SDS011;57934;51.532;7.684;2023-03-01T08:06:03;19.25;;;11.43;;
70467;SDS011;57934;51.532;7.684;2023-03-01T08:08:31;21.02;;;11.55;;
70467;SDS011;57934;51.532;7.684;2023-03-01T08:11:00;18.73;;;11.25;;
70467;SDS011;57934;51.532;7.684;2023-03-01T08:13:28;18.67;;;11.48;;
70467;SDS011;57934;51.532;7.684;2023-03-01T08:15:54;21.30;;;11.18;;
70467;SDS011;57934;51.532;7.684;2023-03-01T08:18:25;20.80;;;11.50;;
70467;SDS011;57934;51.532;7.684;2023-03-01T08:20:51;16.98;;;10.32;;
70467;SDS011;57934;51.532;7.684;2023-03-01T08:23:17;15.35;;;10.07;;
70467;SDS011;57934;51.532;7.684;2023-03-01T08:25:43;19.42;;;11.00;;
70467;SDS011;57934;51.532;7.684;2023-03-01T08:28:09;15.85;;;10.30;;
70467;SDS011;57934;51.532;7.684;2023-03-01T08:30:35;15.57;;;11.23;;
70467;SDS011;57934;51.532;7.684;2023-03-01T08:33:01;17.35;;;10.93;;
70467;SDS011;57934;51.532;7.684;2023-03-01T08:35:27;16.15;;;10.60;;
70467;SDS011;57934;51.532;7.684;2023-03-01T08:37:53;18.00;;;11.43;;
70467;SDS011;57934;51.532;7.684;2023-03-01T08:40:19;14.77;;;11.18;;
70467;SDS011;57934;51.532;7.684;2023-03-01T08:42:45;17.52;;;11.82;;
70467;SDS011;57934;51.532;7.684;2023-03-01T08:45:11;15.75;;;10.30;;
70467;SDS011;57934;51.532;7.684;2023-03-01T08:47:39;16.70;;;11.10;;
70467;SDS011;57934;51.532;7.684;2023-03-01T08:50:05;12.50;;;9.63;;
70467;SDS011;57934;51.532;7.684;2023-03-01T08:52:32;12.52;;;9.18;;
70467;SDS011;57934;51.532;7.684;2023-03-01T08:54:58;14.90;;;8.98;;
70467;SDS011;57934;51.532;7.684;2023-03-01T08:57:26;14.93;;;8.93;;
70467;SDS011;57934;51.532;7.684;2023-03-01T08:59:53;15.35;;;9.75;;
70467;SDS011;57934;51.532;7.684;2023-03-01T09:02:21;16.35;;;9.68;;
70467;SDS011;57934;51.532;7.684;2023-03-01T09:04:47;13.70;;;8.55;;
70467;SDS011;57934;51.532;7.684;2023-03-01T09:07:13;16.05;;;8.23;;
70467;SDS011;57934;51.532;7.684;2023-03-01T09:09:39;11.38;;;8.52;;
70467;SDS011;57934;51.532;7.684;2023-03-01T09:12:05;12.45;;;8.70;;
70467;SDS011;57934;51.532;7.684;2023-03-01T09:14:31;11.73;;;8.80;;
70467;SDS011;57934;51.532;7.684;2023-03-01T09:16:57;13.60;;;8.32;;
70467;SDS011;57934;51.532;7.684;2023-03-01T09:19:23;12.50;;;7.95;;
70467;SDS011;57934;51.532;7.684;2023-03-01T09:21:49;9.63;;;7.97;;
70467;SDS011;57934;51.532;7.684;2023-03-01T09:24:20;12.15;;;8.35;;
70467;SDS011;57934;51.532;7.684;2023-03-01T09:26:46;12.30;;;8.52;;
70467;SDS011;57934;51.532;7.684;2023-03-01T09:29:13;13.35;;;8.80;;
70467;SDS011;57934;51.532;7.684;2023-03-01T09:31:40;10.07;;;8.32;;
70467;SDS011;57934;51.532;7.684;2023-03-01T09:34:07;10.68;;;7.70;;
70467;SDS011;57934;51.532;7.684;2023-03-01T09:36:33;9.73;;;8.10;;
70467;SDS011;57934;51.532;7.684;2023-03-01T09:39:00;10.15;;;7.43;;
70467;SDS011;57934;51.532;7.684;2023-03-01T09:41:32;11.98;;;7.72;;
70467;SDS011;57934;51.532;7.684;2023-03-01T09:44:00;11.52;;;8.00;;
70467;SDS011;57934;51.532;7.684;2023-03-01T09:46:40;14.67;;;8.00;;
70467;SDS011;57934;51.532;7.684;2023-03-01T09:49:14;10.15;;;7.55;;
70467;SDS011;57934;51.532;7.684;2023-03-01T09:51:47;12.65;;;8.10;;
70467;SDS011;57934;51.532;7.684;2023-03-01T09:54:21;8.48;;;7.13;;
70467;SDS011;57934;51.532;7.684;2023-03-01T09:56:57;13.50;;;7.90;;
70467;SDS011;57934;51.532;7.684;2023-03-01T10:02:24;13.18;;;7.38;;
70467;SDS011;57934;51.532;7.684;2023-03-01T10:04:53;10.35;;;7.40;;
70467;SDS011;57934;51.532;7.684;2023-03-01T10:10:16;9.70;;;6.75;;
70467;SDS011;57934;51.532;7.684;2023-03-01T10:12:51;9.90;;;6.57;;
70467;SDS011;57934;51.532;7.684;2023-03-01T10:15:28;8.98;;;7.43;;
70467;SDS011;57934;51.532;7.684;2023-03-01T10:18:05;8.77;;;6.50;;
70467;SDS011;57934;51.532;7.684;2023-03-01T10:23:14;9.50;;;6.50;;
70467;SDS011;57934;51.532;7.684;2023-03-01T10:31:49;10.45;;;6.90;;
70467;SDS011;57934;51.532;7.684;2023-03-01T10:34:17;14.27;;;7.22;;
70467;SDS011;57934;51.532;7.684;2023-03-01T10:36:57;11.45;;;7.53;;
70467;SDS011;57934;51.532;7.684;2023-03-01T10:39:30;12.00;;;6.77;;
70467;SDS011;57934;51.532;7.684;2023-03-01T10:41:57;13.27;;;7.40;;
70467;SDS011;57934;51.532;7.684;2023-03-01T10:47:18;9.15;;;6.47;;
70467;SDS011;57934;51.532;7.684;2023-03-01T10:49:58;13.27;;;7.22;;
70467;SDS011;57934;51.532;7.684;2023-03-01T10:57:41;11.98;;;6.78;;
70467;SDS011;57934;51.532;7.684;2023-03-01T11:02:42;13.10;;;7.15;;
70467;SDS011;57934;51.532;7.684;2023-03-01T11:07:49;12.75;;;7.20;;
70467;SDS011;57934;51.532;7.684;2023-03-01T11:10:22;9.20;;;6.03;;
70467;SDS011;57934;51.532;7.684;2023-03-01T11:12:56;9.02;;;6.90;;
70467;SDS011;57934;51.532;7.684;2023-03-01T11:15:33;11.13;;;7.47;;
70467;SDS011;57934;51.532;7.684;2023-03-01T11:17:59;10.02;;;6.15;;
70467;SDS011;57934;51.532;7.684;2023-03-01T11:23:04;10.68;;;7.07;;
70467;SDS011;57934;51.532;7.684;2023-03-01T11:25:36;10.40;;;6.88;;
70467;SDS011;57934;51.532;7.684;2023-03-01T11:28:06;10.43;;;6.57;;
70467;SDS011;57934;51.532;7.684;2023-03-01T11:30:43;10.10;;;7.22;;
70467;SDS011;57934;51.532;7.684;2023-03-01T11:33:18;9.63;;;6.97;;
70467;SDS011;57934;51.532;7.684;2023-03-01T11:36:07;11.05;;;6.93;;
70467;SDS011;57934;51.532;7.684;2023-03-01T11:38:43;10.63;;;6.32;;
70467;SDS011;57934;51.532;7.684;2023-03-01T11:41:16;11.80;;;6.15;;
70467;SDS011;57934;51.532;7.684;2023-03-01T11:43:57;16.35;;;7.40;;
70467;SDS011;57934;51.532;7.684;2023-03-01T12:02:53;8.98;;;6.30;;
70467;SDS011;57934;51.532;7.684;2023-03-01T12:08:17;11.00;;;6.68;;
70467;SDS011;57934;51.532;7.684;2023-03-01T12:17:06;12.95;;;6.88;;
70467;SDS011;57934;51.532;7.684;2023-03-01T12:19:45;10.48;;;6.28;;
70467;SDS011;57934;51.532;7.684;2023-03-01T12:22:45;7.47;;;5.85;;
70467;SDS011;57934;51.532;7.684;2023-03-01T12:25:39;9.95;;;6.82;;
70467;SDS011;57934;51.532;7.684;2023-03-01T12:36:39;9.25;;;6.65;;
70467;SDS011;57934;51.532;7.684;2023-03-01T12:50:41;10.18;;;7.35;;
70467;SDS011;57934;51.532;7.684;2023-03-01T12:53:21;11.85;;;6.72;;
70467;SDS011;57934;51.532;7.684;2023-03-01T12:55:53;9.85;;;6.93;;
70467;SDS011;57934;51.532;7.684;2023-03-01T12:58:32;11.57;;;7.00;;
70467;SDS011;57934;51.532;7.684;2023-03-01T13:01:14;12.48;;;7.10;;
70467;SDS011;57934;51.532;7.684;2023-03-01T13:06:39;8.60;;;6.00;;
70467;SDS011;57934;51.532;7.684;2023-03-01T13:09:15;11.80;;;6.22;;
70467;SDS011;57934;51.532;7.684;2023-03-01T13:11:50;10.05;;;6.00;;
70467;SDS011;57934;51.532;7.684;2023-03-01T13:16:54;10.40;;;6.28;;
70467;SDS011;57934;51.532;7.684;2023-03-01T13:19:22;8.80;;;6.22;;
70467;SDS011;57934;51.532;7.684;2023-03-01T13:21:50;10.10;;;6.50;;
70467;SDS011;57934;51.532;7.684;2023-03-01T13:24:25;10.82;;;7.03;;
70467;SDS011;57934;51.532;7.684;2023-03-01T13:27:27;9.80;;;6.35;;
70467;SDS011;57934;51.532;7.684;2023-03-01T13:29:54;10.05;;;6.50;;
70467;SDS011;57934;51.532;7.684;2023-03-01T13:32:30;11.63;;;6.65;;
70467;SDS011;57934;51.532;7.684;2023-03-01T13:34:59;12.48;;;6.38;;
70467;SDS011;57934;51.532;7.684;2023-03-01T13:37:26;9.32;;;6.47;;
70467;SDS011;57934;51.532;7.684;2023-03-01T13:39:55;9.93;;;6.25;;
70467;SDS011;57934;51.532;7.684;2023-03-01T13:42:30;9.38;;;5.47;;
70467;SDS011;57934;51.532;7.684;2023-03-01T13:44:57;8.40;;;6.22;;
70467;SDS011;57934;51.532;7.684;2023-03-01T13:47:23;10.45;;;6.40;;
70467;SDS011;57934;51.532;7.684;2023-03-01T13:49:57;11.05;;;6.13;;
70467;SDS011;57934;51.532;7.684;2023-03-01T13:52:30;12.93;;;7.13;;
70467;SDS011;57934;51.532;7.684;2023-03-01T13:57:50;12.50;;;7.00;;
70467;SDS011;57934;51.532;7.684;2023-03-01T14:03:06;8.98;;;6.43;;
70467;SDS011;57934;51.532;7.684;2023-03-01T14:05:35;12.05;;;5.90;;
70467;SDS011;57934;51.532;7.684;2023-03-01T14:08:14;10.82;;;6.05;;
70467;SDS011;57934;51.532;7.684;2023-03-01T14:19:59;9.02;;;5.97;;
70467;SDS011;57934;51.532;7.684;2023-03-01T14:22:28;8.82;;;5.63;;
70467;SDS011;57934;51.532;7.684;2023-03-01T14:24:58;9.88;;;5.97;;
70467;SDS011;57934;51.532;7.684;2023-03-01T14:27:26;11.23;;;6.30;;
70467;SDS011;57934;51.532;7.684;2023-03-01T14:30:00;7.97;;;5.50;;
70467;SDS011;57934;51.532;7.684;2023-03-01T14:32:29;12.43;;;6.20;;
70467;SDS011;57934;51.532;7.684;2023-03-01T14:34:57;9.48;;;5.80;;
70467;SDS011;57934;51.532;7.684;2023-03-01T14:37:34;10.32;;;5.97;;
70467;SDS011;57934;51.532;7.684;2023-03-01T14:40:01;11.40;;;6.25;;
70467;SDS011;57934;51.532;7.684;2023-03-01T14:42:31;9.32;;;5.70;;
70467;SDS011;57934;51.532;7.684;2023-03-01T14:45:01;13.07;;;6.20;;
70467;SDS011;57934;51.532;7.684;2023-03-01T14:47:30;14.32;;;6.28;;
70467;SDS011;57934;51.532;7.684;2023-03-01T14:49:59;10.70;;;7.00;;
70467;SDS011;57934;51.532;7.684;2023-03-01T14:52:31;9.93;;;5.82;;
70467;SDS011;57934;51.532;7.684;2023-03-01T14:55:15;9.35;;;6.50;;
70467;SDS011;57934;51.532;7.684;2023-03-01T14:57:44;8.85;;;5.70;;
70467;SDS011;57934;51.532;7.684;2023-03-01T15:00:17;12.00;;;6.32;;
70467;SDS011;57934;51.532;7.684;2023-03-01T15:02:50;8.80;;;5.93;;
70467;SDS011;57934;51.532;7.684;2023-03-01T15:05:25;7.72;;;6.07;;
70467;SDS011;57934;51.532;7.684;2023-03-01T15:07:55;9.98;;;5.53;;
70467;SDS011;57934;51.532;7.684;2023-03-01T15:10:24;10.73;;;6.35;;
70467;SDS011;57934;51.532;7.684;2023-03-01T15:12:53;9.10;;;5.30;;
70467;SDS011;57934;51.532;7.684;2023-03-01T15:15:30;10.95;;;6.25;;
70467;SDS011;57934;51.532;7.684;2023-03-01T15:20:45;10.25;;;5.45;;
70467;SDS011;57934;51.532;7.684;2023-03-01T15:23:24;15.20;;;6.40;;
70467;SDS011;57934;51.532;7.684;2023-03-01T15:25:54;11.10;;;5.82;;
70467;SDS011;57934;51.532;7.684;2023-03-01T15:28:33;10.23;;;5.55;;
70467;SDS011;57934;51.532;7.684;2023-03-01T15:31:04;6.57;;;5.25;;
70467;SDS011;57934;51.532;7.684;2023-03-01T15:33:43;10.35;;;5.68;;
70467;SDS011;57934;51.532;7.684;2023-03-01T15:47:47;7.43;;;5.18;;
70467;SDS011;57934;51.532;7.684;2023-03-01T15:50:19;7.65;;;5.00;;
70467;SDS011;57934;51.532;7.684;2023-03-01T15:52:48;8.38;;;5.75;;
70467;SDS011;57934;51.532;7.684;2023-03-01T15:57:46;11.98;;;6.18;;
70467;SDS011;57934;51.532;7.684;2023-03-01T16:00:13;11.65;;;5.75;;
70467;SDS011;57934;51.532;7.684;2023-03-01T16:02:40;11.07;;;6.63;;
70467;SDS011;57934;51.532;7.684;2023-03-01T16:05:26;10.98;;;5.72;;
70467;SDS011;57934;51.532;7.684;2023-03-01T16:07:56;9.00;;;5.38;;
70467;SDS011;57934;51.532;7.684;2023-03-01T16:10:22;9.95;;;5.93;;
70467;SDS011;57934;51.532;7.684;2023-03-01T16:12:49;12.23;;;5.80;;
70467;SDS011;57934;51.532;7.684;2023-03-01T16:17:43;10.02;;;5.18;;
70467;SDS011;57934;51.532;7.684;2023-03-01T16:20:11;11.48;;;5.03;;
70467;SDS011;57934;51.532;7.684;2023-03-01T16:22:37;7.13;;;4.88;;
70467;SDS011;57934;51.532;7.684;2023-03-01T16:25:03;8.18;;;5.20;;
70467;SDS011;57934;51.532;7.684;2023-03-01T16:27:29;6.45;;;4.90;;
70467;SDS011;57934;51.532;7.684;2023-03-01T16:29:55;8.15;;;4.90;;
70467;SDS011;57934;51.532;7.684;2023-03-01T16:32:21;8.02;;;4.90;;
70467;SDS011;57934;51.532;7.684;2023-03-01T16:34:47;6.43;;;4.30;;
70467;SDS011;57934;51.532;7.684;2023-03-01T16:37:15;11.27;;;4.65;;
70467;SDS011;57934;51.532;7.684;2023-03-01T16:39:41;11.32;;;5.15;;
70467;SDS011;57934;51.532;7.684;2023-03-01T16:42:07;8.95;;;4.72;;
70467;SDS011;57934;51.532;7.684;2023-03-01T16:44:33;7.55;;;4.90;;
70467;SDS011;57934;51.532;7.684;2023-03-01T16:46:59;8.30;;;5.15;;
70467;SDS011;57934;51.532;7.684;2023-03-01T16:49:25;9.73;;;5.13;;
70467;SDS011;57934;51.532;7.684;2023-03-01T16:51:53;7.78;;;4.82;;